sensor_id;sensor_type;location;lat;lon;timestamp;P1;durP1;ratioP1;P2;durP2;ratioP2
42134;SDS011;28312;43.460;11.810;2023-12-22T00:00:27;14.15;;;10.77;;
42134;SDS011;28312;43.460;11.810;2023-12-22T00:04:31;9.90;;;7.57;;
42134;SDS011;28312;43.460;11.810;2023-12-22T00:08:35;12.20;;;7.07;;
42134;SDS011;28312;43.460;11.810;2023-12-22T00:12:38;10.30;;;6.63;;
42134;SDS011;28312;43.460;11.810;2023-12-22T00:16:42;18.38;;;14.35;;
42134;SDS011;28312;43.460;11.810;2023-12-22T00:20:45;15.25;;;12.02;;
42134;SDS011;28312;43.460;11.810;2023-12-22T00:24:49;9.20;;;6.43;;
42134;SDS011;28312;43.460;11.810;2023-12-22T00:28:53;18.83;;;13.65;;
42134;SDS011;28312;43.460;11.810;2023-12-22T00:32:56;11.45;;;8.10;;
42134;SDS011;28312;43.460;11.810;2023-12-22T00:37:00;15.85;;;11.30;;
42134;SDS011;28312;43.460;11.810;2023-12-22T00:41:04;8.93;;;6.75;;
42134;SDS011;28312;43.460;11.810;2023-12-22T00:45:07;9.30;;;6.03;;
42134;SDS011;28312;43.460;11.810;2023-12-22T00:49:11;14.80;;;10.85;;
42134;SDS011;28312;43.460;11.810;2023-12-22T00:53:15;10.30;;;6.10;;
42134;SDS011;28312;43.460;11.810;2023-12-22T00:57:19;10.77;;;8.15;;
42134;SDS011;28312;43.460;11.810;2023-12-22T01:01:22;6.57;;;5.45;;
42134;SDS011;28312;43.460;11.810;2023-12-22T01:05:26;11.38;;;7.78;;
42134;SDS011;28312;43.460;11.810;2023-12-22T01:09:30;20.25;;;14.55;;
42134;SDS011;28312;43.460;11.810;2023-12-22T01:13:34;18.50;;;11.90;;
42134;SDS011;28312;43.460;11.810;2023-12-22T01:17:37;11.85;;;9.27;;
42134;SDS011;28312;43.460;11.810;2023-12-22T01:21:42;8.50;;;6.65;;
42134;SDS011;28312;43.460;11.810;2023-12-22T01:25:46;10.70;;;7.88;;
42134;SDS011;28312;43.460;11.810;2023-12-22T01:29:49;10.77;;;8.30;;
42134;SDS011;28312;43.460;11.810;2023-12-22T01:33:53;12.80;;;8.77;;
42134;SDS011;28312;43.460;11.810;2023-12-22T01:37:58;9.27;;;5.50;;
42134;SDS011;28312;43.460;11.810;2023-12-22T01:42:01;10.45;;;6.03;;
42134;SDS011;28312;43.460;11.810;2023-12-22T01:46:05;8.65;;;6.15;;
42134;SDS011;28312;43.460;11.810;2023-12-22T01:50:10;8.73;;;6.43;;
42134;SDS011;28312;43.460;11.810;2023-12-22T01:54:15;9.60;;;7.55;;
42134;SDS011;28312;43.460;11.810;2023-12-22T01:58:19;10.27;;;7.10;;
42134;SDS011;28312;43.460;11.810;2023-12-22T02:02:23;17.33;;;12.98;;
42134;SDS011;28312;43.460;11.810;2023-12-22T02:06:28;16.08;;;9.65;;
42134;SDS011;28312;43.460;11.810;2023-12-22T02:10:36;9.05;;;7.10;;
42134;SDS011;28312;43.460;11.810;2023-12-22T02:14:40;13.48;;;9.43;;
42134;SDS011;28312;43.460;11.810;2023-12-22T02:18:44;11.35;;;8.45;;
42134;SDS011;28312;43.460;11.810;2023-12-22T02:22:52;19.85;;;15.93;;
42134;SDS011;28312;43.460;11.810;2023-12-22T02:26:57;14.20;;;10.77;;
42134;SDS011;28312;43.460;11.810;2023-12-22T02:31:20;15.05;;;11.25;;
42134;SDS011;28312;43.460;11.810;2023-12-22T02:35:36;16.52;;;12.35;;
42134;SDS011;28312;43.460;11.810;2023-12-22T02:39:44;14.43;;;11.00;;
42134;SDS011;28312;43.460;11.810;2023-12-22T02:43:49;16.92;;;12.55;;
42134;SDS011;28312;43.460;11.810;2023-12-22T02:47:53;14.25;;;9.70;;
42134;SDS011;28312;43.460;11.810;2023-12-22T02:51:56;15.93;;;12.25;;
42134;SDS011;28312;43.460;11.810;2023-12-22T02:56:00;16.13;;;11.82;;
42134;SDS011;28312;43.460;11.810;2023-12-22T03:00:05;19.13;;;12.45;;
42134;SDS011;28312;43.460;11.810;2023-12-22T03:04:09;12.50;;;9.73;;
42134;SDS011;28312;43.460;11.810;2023-12-22T03:08:13;12.15;;;9.80;;
42134;SDS011;28312;43.460;11.810;2023-12-22T03:12:17;10.55;;;6.10;;
42134;SDS011;28312;43.460;11.810;2023-12-22T03:16:20;16.08;;;10.82;;
42134;SDS011;28312;43.460;11.810;2023-12-22T03:20:24;15.60;;;13.25;;
42134;SDS011;28312;43.460;11.810;2023-12-22T03:24:29;13.10;;;9.68;;
42134;SDS011;28312;43.460;11.810;2023-12-22T03:28:34;9.75;;;7.28;;
42134;SDS011;28312;43.460;11.810;2023-12-22T03:32:40;15.13;;;10.63;;
42134;SDS011;28312;43.460;11.810;2023-12-22T03:36:44;10.38;;;8.23;;
42134;SDS011;28312;43.460;11.810;2023-12-22T03:40:51;17.63;;;13.38;;
42134;SDS011;28312;43.460;11.810;2023-12-22T03:44:55;12.32;;;9.70;;
42134;SDS011;28312;43.460;11.810;2023-12-22T03:48:59;11.73;;;7.95;;
42134;SDS011;28312;43.460;11.810;2023-12-22T03:53:02;15.27;;;9.98;;
42134;SDS011;28312;43.460;11.810;2023-12-22T03:57:06;9.40;;;6.40;;
42134;SDS011;28312;43.460;11.810;2023-12-22T04:01:13;8.25;;;6.15;;
42134;SDS011;28312;43.460;11.810;2023-12-22T04:05:17;5.18;;;3.92;;
42134;SDS011;28312;43.460;11.810;2023-12-22T04:09:21;8.77;;;5.38;;
42134;SDS011;28312;43.460;11.810;2023-12-22T04:13:25;12.35;;;8.05;;
42134;SDS011;28312;43.460;11.810;2023-12-22T04:17:28;6.82;;;4.93;;
42134;SDS011;28312;43.460;11.810;2023-12-22T04:21:34;7.45;;;4.47;;
42134;SDS011;28312;43.460;11.810;2023-12-22T04:25:38;9.32;;;6.20;;
42134;SDS011;28312;43.460;11.810;2023-12-22T04:29:42;6.13;;;4.57;;
42134;SDS011;28312;43.460;11.810;2023-12-22T04:33:46;10.95;;;7.07;;
42134;SDS011;28312;43.460;11.810;2023-12-22T04:37:50;9.52;;;7.03;;
42134;SDS011;28312;43.460;11.810;2023-12-22T04:41:54;7.53;;;5.60;;
42134;SDS011;28312;43.460;11.810;2023-12-22T04:45:57;6.78;;;5.28;;
42134;SDS011;28312;43.460;11.810;2023-12-22T04:50:01;7.63;;;4.22;;
42134;SDS011;28312;43.460;11.810;2023-12-22T04:54:05;4.35;;;3.00;;
42134;SDS011;28312;43.460;11.810;2023-12-22T04:58:10;9.23;;;6.47;;
42134;SDS011;28312;43.460;11.810;2023-12-22T05:02:13;7.13;;;4.75;;
42134;SDS011;28312;43.460;11.810;2023-12-22T05:06:17;6.45;;;4.95;;
42134;SDS011;28312;43.460;11.810;2023-12-22T05:10:20;5.68;;;4.78;;
42134;SDS011;28312;43.460;11.810;2023-12-22T05:14:24;11.68;;;7.60;;
42134;SDS011;28312;43.460;11.810;2023-12-22T05:18:27;7.93;;;4.40;;
42134;SDS011;28312;43.460;11.810;2023-12-22T05:22:31;5.95;;;4.47;;
42134;SDS011;28312;43.460;11.810;2023-12-22T05:26:38;7.38;;;4.82;;
42134;SDS011;28312;43.460;11.810;2023-12-22T05:30:42;10.25;;;7.35;;
42134;SDS011;28312;43.460;11.810;2023-12-22T05:34:46;8.63;;;5.38;;
42134;SDS011;28312;43.460;11.810;2023-12-22T05:38:51;8.45;;;6.97;;
42134;SDS011;28312;43.460;11.810;2023-12-22T05:42:56;9.15;;;6.20;;
42134;SDS011;28312;43.460;11.810;2023-12-22T05:47:00;10.63;;;7.43;;
42134;SDS011;28312;43.460;11.810;2023-12-22T05:51:03;5.07;;;3.13;;
42134;SDS011;28312;43.460;11.810;2023-12-22T05:55:10;6.18;;;3.03;;
42134;SDS011;28312;43.460;11.810;2023-12-22T05:59:14;7.68;;;4.53;;
42134;SDS011;28312;43.460;11.810;2023-12-22T06:03:18;7.18;;;4.05;;
42134;SDS011;28312;43.460;11.810;2023-12-22T06:07:21;10.32;;;7.70;;
42134;SDS011;28312;43.460;11.810;2023-12-22T06:11:25;14.10;;;7.47;;
42134;SDS011;28312;43.460;11.810;2023-12-22T06:15:29;10.35;;;7.25;;
42134;SDS011;28312;43.460;11.810;2023-12-22T06:19:34;7.82;;;5.60;;
42134;SDS011;28312;43.460;11.810;2023-12-22T06:23:38;5.70;;;3.97;;
42134;SDS011;28312;43.460;11.810;2023-12-22T06:27:42;5.20;;;3.08;;
42134;SDS011;28312;43.460;11.810;2023-12-22T06:31:48;4.03;;;2.57;;
42134;SDS011;28312;43.460;11.810;2023-12-22T06:35:53;6.13;;;4.40;;
42134;SDS011;28312;43.460;11.810;2023-12-22T06:39:57;10.80;;;6.65;;
42134;SDS011;28312;43.460;11.810;2023-12-22T06:44:01;9.23;;;7.53;;
42134;SDS011;28312;43.460;11.810;2023-12-22T06:48:06;9.82;;;7.53;;
42134;SDS011;28312;43.460;11.810;2023-12-22T06:52:10;9.13;;;6.90;;
42134;SDS011;28312;43.460;11.810;2023-12-22T06:56:14;5.28;;;3.90;;
42134;SDS011;28312;43.460;11.810;2023-12-22T07:00:22;6.68;;;3.83;;
42134;SDS011;28312;43.460;11.810;2023-12-22T07:04:25;7.82;;;4.75;;
42134;SDS011;28312;43.460;11.810;2023-12-22T07:08:29;12.57;;;7.78;;
42134;SDS011;28312;43.460;11.810;2023-12-22T07:12:32;7.82;;;5.35;;
42134;SDS011;28312;43.460;11.810;2023-12-22T07:16:36;8.65;;;6.45;;
42134;SDS011;28312;43.460;11.810;2023-12-22T07:20:40;10.32;;;7.85;;
42134;SDS011;28312;43.460;11.810;2023-12-22T07:24:44;8.50;;;5.40;;
42134;SDS011;28312;43.460;11.810;2023-12-22T07:28:49;5.47;;;4.00;;
42134;SDS011;28312;43.460;11.810;2023-12-22T07:32:55;7.63;;;4.13;;
42134;SDS011;28312;43.460;11.810;2023-12-22T07:37:00;7.45;;;4.97;;
42134;SDS011;28312;43.460;11.810;2023-12-22T07:41:09;7.53;;;5.80;;
42134;SDS011;28312;43.460;11.810;2023-12-22T07:45:14;8.43;;;4.72;;
42134;SDS011;28312;43.460;11.810;2023-12-22T07:49:17;7.30;;;5.07;;
42134;SDS011;28312;43.460;11.810;2023-12-22T07:53:21;8.65;;;7.30;;
42134;SDS011;28312;43.460;11.810;2023-12-22T07:57:28;6.20;;;4.53;;
42134;SDS011;28312;43.460;11.810;2023-12-22T08:01:31;10.07;;;8.48;;
42134;SDS011;28312;43.460;11.810;2023-12-22T08:05:36;10.05;;;6.18;;
42134;SDS011;28312;43.460;11.810;2023-12-22T08:09:39;6.22;;;4.50;;
42134;SDS011;28312;43.460;11.810;2023-12-22T08:13:43;7.43;;;5.22;;
42134;SDS011;28312;43.460;11.810;2023-12-22T08:17:47;10.50;;;6.03;;
42134;SDS011;28312;43.460;11.810;2023-12-22T08:21:52;15.90;;;9.25;;
42134;SDS011;28312;43.460;11.810;2023-12-22T08:25:58;12.80;;;7.18;;
42134;SDS011;28312;43.460;11.810;2023-12-22T08:30:01;13.13;;;7.47;;
42134;SDS011;28312;43.460;11.810;2023-12-22T08:34:06;9.80;;;6.65;;
42134;SDS011;28312;43.460;11.810;2023-12-22T08:38:09;7.72;;;5.78;;
42134;SDS011;28312;43.460;11.810;2023-12-22T08:42:16;8.77;;;6.28;;
42134;SDS011;28312;43.460;11.810;2023-12-22T08:46:21;8.95;;;5.38;;
42134;SDS011;28312;43.460;11.810;2023-12-22T08:50:27;9.52;;;6.05;;
42134;SDS011;28312;43.460;11.810;2023-12-22T08:54:31;6.72;;;4.65;;
42134;SDS011;28312;43.460;11.810;2023-12-22T08:58:36;8.43;;;5.93;;
42134;SDS011;28312;43.460;11.810;2023-12-22T09:02:41;8.90;;;3.85;;
42134;SDS011;28312;43.460;11.810;2023-12-22T09:06:45;5.82;;;3.70;;
42134;SDS011;28312;43.460;11.810;2023-12-22T09:10:49;8.05;;;4.13;;
42134;SDS011;28312;43.460;11.810;2023-12-22T09:14:52;6.80;;;3.42;;
42134;SDS011;28312;43.460;11.810;2023-12-22T09:18:57;8.88;;;4.00;;
42134;SDS011;28312;43.460;11.810;2023-12-22T09:23:00;6.97;;;5.15;;
42134;SDS011;28312;43.460;11.810;2023-12-22T09:27:08;7.35;;;4.68;;
42134;SDS011;28312;43.460;11.810;2023-12-22T09:31:12;5.50;;;3.95;;
42134;SDS011;28312;43.460;11.810;2023-12-22T09:35:18;7.73;;;3.50;;
42134;SDS011;28312;43.460;11.810;2023-12-22T09:39:21;7.13;;;4.90;;
42134;SDS011;28312;43.460;11.810;2023-12-22T09:43:25;7.50;;;4.53;;
42134;SDS011;28312;43.460;11.810;2023-12-22T09:47:29;5.80;;;3.60;;
42134;SDS011;28312;43.460;11.810;2023-12-22T09:51:33;6.80;;;4.35;;
42134;SDS011;28312;43.460;11.810;2023-12-22T09:55:42;8.17;;;4.00;;
42134;SDS011;28312;43.460;11.810;2023-12-22T09:59:51;6.13;;;2.83;;
42134;SDS011;28312;43.460;11.810;2023-12-22T10:03:56;8.38;;;2.35;;
42134;SDS011;28312;43.460;11.810;2023-12-22T10:08:01;3.55;;;1.50;;
42134;SDS011;28312;43.460;11.810;2023-12-22T10:12:05;8.18;;;1.48;;
42134;SDS011;28312;43.460;11.810;2023-12-22T10:16:12;3.60;;;1.80;;
42134;SDS011;28312;43.460;11.810;2023-12-22T10:20:16;5.55;;;1.35;;
42134;SDS011;28312;43.460;11.810;2023-12-22T10:24:36;4.57;;;1.35;;
42134;SDS011;28312;43.460;11.810;2023-12-22T10:28:50;5.95;;;1.67;;
42134;SDS011;28312;43.460;11.810;2023-12-22T10:32:54;2.25;;;0.90;;
42134;SDS011;28312;43.460;11.810;2023-12-22T10:37:01;2.22;;;1.08;;
42134;SDS011;28312;43.460;11.810;2023-12-22T10:41:06;4.57;;;1.13;;
42134;SDS011;28312;43.460;11.810;2023-12-22T10:45:11;3.38;;;1.35;;
42134;SDS011;28312;43.460;11.810;2023-12-22T10:49:16;4.30;;;1.13;;
42134;SDS011;28312;43.460;11.810;2023-12-22T10:53:21;3.95;;;1.73;;
42134;SDS011;28312;43.460;11.810;2023-12-22T10:57:26;3.83;;;1.55;;
42134;SDS011;28312;43.460;11.810;2023-12-22T11:01:30;5.20;;;1.48;;
42134;SDS011;28312;43.460;11.810;2023-12-22T11:05:39;4.70;;;1.67;;
42134;SDS011;28312;43.460;11.810;2023-12-22T11:09:47;3.22;;;1.20;;
42134;SDS011;28312;43.460;11.810;2023-12-22T11:13:59;4.53;;;1.90;;
42134;SDS011;28312;43.460;11.810;2023-12-22T11:18:04;3.85;;;1.55;;
42134;SDS011;28312;43.460;11.810;2023-12-22T11:22:10;4.73;;;1.40;;
42134;SDS011;28312;43.460;11.810;2023-12-22T11:26:16;4.00;;;1.30;;
42134;SDS011;28312;43.460;11.810;2023-12-22T11:30:23;8.68;;;2.00;;
42134;SDS011;28312;43.460;11.810;2023-12-22T11:34:28;6.20;;;1.55;;
42134;SDS011;28312;43.460;11.810;2023-12-22T11:38:33;4.72;;;1.65;;
42134;SDS011;28312;43.460;11.810;2023-12-22T11:42:38;9.38;;;1.88;;
42134;SDS011;28312;43.460;11.810;2023-12-22T11:47:02;7.20;;;1.30;;
42134;SDS011;28312;43.460;11.810;2023-12-22T11:51:17;5.47;;;1.40;;
42134;SDS011;28312;43.460;11.810;2023-12-22T12:00:03;4.53;;;1.45;;
42134;SDS011;28312;43.460;11.810;2023-12-22T12:04:14;4.22;;;1.60;;
42134;SDS011;28312;43.460;11.810;2023-12-22T12:08:17;2.95;;;1.30;;
42134;SDS011;28312;43.460;11.810;2023-12-22T12:12:33;5.28;;;1.55;;
42134;SDS011;28312;43.460;11.810;2023-12-22T12:16:37;3.47;;;1.38;;
42134;SDS011;28312;43.460;11.810;2023-12-22T12:20:41;5.55;;;1.42;;
42134;SDS011;28312;43.460;11.810;2023-12-22T12:24:47;3.65;;;1.83;;
42134;SDS011;28312;43.460;11.810;2023-12-22T12:28:51;5.85;;;1.73;;
42134;SDS011;28312;43.460;11.810;2023-12-22T12:32:58;4.60;;;1.60;;
42134;SDS011;28312;43.460;11.810;2023-12-22T12:37:06;4.18;;;1.80;;
42134;SDS011;28312;43.460;11.810;2023-12-22T12:41:10;4.72;;;1.13;;
42134;SDS011;28312;43.460;11.810;2023-12-22T12:45:21;6.18;;;1.48;;
42134;SDS011;28312;43.460;11.810;2023-12-22T12:49:29;2.50;;;1.13;;
42134;SDS011;28312;43.460;11.810;2023-12-22T12:53:34;5.00;;;1.73;;
42134;SDS011;28312;43.460;11.810;2023-12-22T13:01:46;4.05;;;1.48;;
42134;SDS011;28312;43.460;11.810;2023-12-22T13:05:51;4.38;;;1.75;;
42134;SDS011;28312;43.460;11.810;2023-12-22T13:09:55;2.53;;;1.05;;
42134;SDS011;28312;43.460;11.810;2023-12-22T13:13:59;4.90;;;1.25;;
42134;SDS011;28312;43.460;11.810;2023-12-22T13:18:03;4.35;;;1.52;;
42134;SDS011;28312;43.460;11.810;2023-12-22T13:22:07;5.20;;;1.50;;
42134;SDS011;28312;43.460;11.810;2023-12-22T13:26:20;4.60;;;1.42;;
42134;SDS011;28312;43.460;11.810;2023-12-22T13:30:36;6.13;;;1.50;;
42134;SDS011;28312;43.460;11.810;2023-12-22T13:34:51;3.80;;;1.33;;
42134;SDS011;28312;43.460;11.810;2023-12-22T13:39:00;2.40;;;1.00;;
42134;SDS011;28312;43.460;11.810;2023-12-22T13:43:04;3.22;;;1.05;;
42134;SDS011;28312;43.460;11.810;2023-12-22T13:47:08;6.05;;;1.48;;
42134;SDS011;28312;43.460;11.810;2023-12-22T13:51:13;6.30;;;1.10;;
42134;SDS011;28312;43.460;11.810;2023-12-22T13:55:18;4.50;;;1.40;;
42134;SDS011;28312;43.460;11.810;2023-12-22T13:59:30;6.03;;;1.83;;
42134;SDS011;28312;43.460;11.810;2023-12-22T14:03:37;3.58;;;1.05;;
42134;SDS011;28312;43.460;11.810;2023-12-22T14:07:41;6.22;;;1.50;;
42134;SDS011;28312;43.460;11.810;2023-12-22T14:11:46;3.38;;;1.55;;
42134;SDS011;28312;43.460;11.810;2023-12-22T14:16:05;6.47;;;1.33;;
42134;SDS011;28312;43.460;11.810;2023-12-22T14:24:13;5.70;;;1.58;;
42134;SDS011;28312;43.460;11.810;2023-12-22T14:28:16;4.65;;;1.50;;
42134;SDS011;28312;43.460;11.810;2023-12-22T14:32:20;9.50;;;2.67;;
42134;SDS011;28312;43.460;11.810;2023-12-22T14:36:24;6.10;;;1.85;;
42134;SDS011;28312;43.460;11.810;2023-12-22T14:40:27;5.80;;;2.13;;
42134;SDS011;28312;43.460;11.810;2023-12-22T14:44:31;3.97;;;1.73;;
42134;SDS011;28312;43.460;11.810;2023-12-22T14:48:35;5.18;;;1.33;;
42134;SDS011;28312;43.460;11.810;2023-12-22T14:52:39;9.10;;;2.05;;
42134;SDS011;28312;43.460;11.810;2023-12-22T14:56:45;3.70;;;1.60;;
42134;SDS011;28312;43.460;11.810;2023-12-22T15:00:49;6.70;;;1.75;;
42134;SDS011;28312;43.460;11.810;2023-12-22T15:04:52;6.57;;;1.65;;
42134;SDS011;28312;43.460;11.810;2023-12-22T15:09:00;4.43;;;1.52;;
42134;SDS011;28312;43.460;11.810;2023-12-22T15:13:04;3.78;;;0.80;;
42134;SDS011;28312;43.460;11.810;2023-12-22T15:17:11;8.52;;;2.25;;
42134;SDS011;28312;43.460;11.810;2023-12-22T15:21:20;6.70;;;2.75;;
42134;SDS011;28312;43.460;11.810;2023-12-22T15:25:24;2.50;;;1.10;;
42134;SDS011;28312;43.460;11.810;2023-12-22T15:29:29;6.97;;;1.50;;
42134;SDS011;28312;43.460;11.810;2023-12-22T15:33:32;3.92;;;1.40;;
42134;SDS011;28312;43.460;11.810;2023-12-22T15:37:37;7.72;;;2.30;;
42134;SDS011;28312;43.460;11.810;2023-12-22T15:41:41;5.40;;;1.33;;
42134;SDS011;28312;43.460;11.810;2023-12-22T15:45:45;10.68;;;1.80;;
42134;SDS011;28312;43.460;11.810;2023-12-22T15:49:49;4.13;;;1.55;;
42134;SDS011;28312;43.460;11.810;2023-12-22T15:53:53;12.63;;;2.10;;
42134;SDS011;28312;43.460;11.810;2023-12-22T15:57:57;4.85;;;1.45;;
42134;SDS011;28312;43.460;11.810;2023-12-22T16:02:03;4.03;;;1.60;;
42134;SDS011;28312;43.460;11.810;2023-12-22T16:06:09;2.77;;;1.47;;
42134;SDS011;28312;43.460;11.810;2023-12-22T16:10:13;5.15;;;1.80;;
42134;SDS011;28312;43.460;11.810;2023-12-22T16:14:16;6.60;;;2.38;;
42134;SDS011;28312;43.460;11.810;2023-12-22T16:18:20;10.57;;;8.02;;
42134;SDS011;28312;43.460;11.810;2023-12-22T16:22:24;6.28;;;3.95;;
42134;SDS011;28312;43.460;11.810;2023-12-22T16:26:28;5.43;;;2.63;;
42134;SDS011;28312;43.460;11.810;2023-12-22T16:30:32;6.93;;;3.60;;
42134;SDS011;28312;43.460;11.810;2023-12-22T16:34:36;5.18;;;2.75;;
42134;SDS011;28312;43.460;11.810;2023-12-22T16:38:43;8.77;;;2.65;;
42134;SDS011;28312;43.460;11.810;2023-12-22T16:42:47;2.55;;;1.40;;
42134;SDS011;28312;43.460;11.810;2023-12-22T16:46:51;5.47;;;1.73;;
42134;SDS011;28312;43.460;11.810;2023-12-22T16:50:55;2.72;;;1.50;;
42134;SDS011;28312;43.460;11.810;2023-12-22T16:55:04;7.20;;;1.58;;
42134;SDS011;28312;43.460;11.810;2023-12-22T16:59:08;5.00;;;2.20;;
42134;SDS011;28312;43.460;11.810;2023-12-22T17:03:11;3.42;;;1.35;;
42134;SDS011;28312;43.460;11.810;2023-12-22T17:07:15;5.53;;;1.80;;
42134;SDS011;28312;43.460;11.810;2023-12-22T17:11:19;4.18;;;1.50;;
42134;SDS011;28312;43.460;11.810;2023-12-22T17:15:24;9.05;;;3.90;;
42134;SDS011;28312;43.460;11.810;2023-12-22T17:19:27;5.75;;;1.45;;
42134;SDS011;28312;43.460;11.810;2023-12-22T17:23:31;3.08;;;1.63;;
42134;SDS011;28312;43.460;11.810;2023-12-22T17:27:34;5.40;;;1.75;;
42134;SDS011;28312;43.460;11.810;2023-12-22T17:31:38;4.47;;;1.60;;
42134;SDS011;28312;43.460;11.810;2023-12-22T17:35:42;4.60;;;1.48;;
42134;SDS011;28312;43.460;11.810;2023-12-22T17:39:47;7.47;;;2.25;;
42134;SDS011;28312;43.460;11.810;2023-12-22T17:43:53;8.40;;;1.67;;
42134;SDS011;28312;43.460;11.810;2023-12-22T17:47:57;3.08;;;1.13;;
42134;SDS011;28312;43.460;11.810;2023-12-22T17:52:00;3.92;;;1.23;;
42134;SDS011;28312;43.460;11.810;2023-12-22T17:56:05;4.00;;;1.15;;
42134;SDS011;28312;43.460;11.810;2023-12-22T18:00:09;9.30;;;1.58;;
42134;SDS011;28312;43.460;11.810;2023-12-22T18:04:13;3.55;;;1.33;;
42134;SDS011;28312;43.460;11.810;2023-12-22T18:08:16;8.13;;;2.08;;
42134;SDS011;28312;43.460;11.810;2023-12-22T18:12:21;3.20;;;1.15;;
42134;SDS011;28312;43.460;11.810;2023-12-22T18:16:24;3.90;;;1.90;;
42134;SDS011;28312;43.460;11.810;2023-12-22T18:20:30;9.60;;;3.05;;
42134;SDS011;28312;43.460;11.810;2023-12-22T18:24:34;7.22;;;2.80;;
42134;SDS011;28312;43.460;11.810;2023-12-22T18:28:37;6.07;;;2.50;;
42134;SDS011;28312;43.460;11.810;2023-12-22T18:32:41;3.97;;;2.67;;
42134;SDS011;28312;43.460;11.810;2023-12-22T18:36:45;8.95;;;3.10;;
42134;SDS011;28312;43.460;11.810;2023-12-22T18:40:48;3.47;;;1.63;;
42134;SDS011;28312;43.460;11.810;2023-12-22T18:44:53;11.70;;;5.60;;
42134;SDS011;28312;43.460;11.810;2023-12-22T18:48:58;7.65;;;2.25;;
42134;SDS011;28312;43.460;11.810;2023-12-22T18:53:02;9.60;;;2.95;;
42134;SDS011;28312;43.460;11.810;2023-12-22T18:57:07;3.20;;;1.77;;
42134;SDS011;28312;43.460;11.810;2023-12-22T19:01:11;7.03;;;2.95;;
42134;SDS011;28312;43.460;11.810;2023-12-22T19:05:27;5.23;;;2.27;;
42134;SDS011;28312;43.460;11.810;2023-12-22T19:09:32;8.75;;;2.55;;
42134;SDS011;28312;43.460;11.810;2023-12-22T19:13:35;3.83;;;1.40;;
42134;SDS011;28312;43.460;11.810;2023-12-22T19:17:42;7.38;;;1.50;;
42134;SDS011;28312;43.460;11.810;2023-12-22T19:21:50;3.38;;;1.30;;
42134;SDS011;28312;43.460;11.810;2023-12-22T19:25:54;6.28;;;1.60;;
42134;SDS011;28312;43.460;11.810;2023-12-22T19:29:58;3.72;;;1.58;;
42134;SDS011;28312;43.460;11.810;2023-12-22T19:34:02;5.00;;;1.83;;
42134;SDS011;28312;43.460;11.810;2023-12-22T19:38:06;5.10;;;2.00;;
42134;SDS011;28312;43.460;11.810;2023-12-22T19:42:10;8.98;;;3.53;;
42134;SDS011;28312;43.460;11.810;2023-12-22T19:46:15;14.90;;;4.88;;
42134;SDS011;28312;43.460;11.810;2023-12-22T19:50:21;4.23;;;2.57;;
42134;SDS011;28312;43.460;11.810;2023-12-22T19:54:25;5.13;;;3.47;;
42134;SDS011;28312;43.460;11.810;2023-12-22T19:58:29;11.55;;;5.22;;
42134;SDS011;28312;43.460;11.810;2023-12-22T20:02:33;8.18;;;3.13;;
42134;SDS011;28312;43.460;11.810;2023-12-22T20:06:37;7.80;;;4.00;;
42134;SDS011;28312;43.460;11.810;2023-12-22T20:10:45;5.03;;;2.33;;
42134;SDS011;28312;43.460;11.810;2023-12-22T20:14:50;6.20;;;2.50;;
42134;SDS011;28312;43.460;11.810;2023-12-22T20:18:54;8.82;;;2.75;;
42134;SDS011;28312;43.460;11.810;2023-12-22T20:23:00;3.97;;;2.20;;
42134;SDS011;28312;43.460;11.810;2023-12-22T20:27:06;8.77;;;3.30;;
42134;SDS011;28312;43.460;11.810;2023-12-22T20:31:10;11.15;;;4.60;;
42134;SDS011;28312;43.460;11.810;2023-12-22T20:35:14;16.20;;;5.13;;
42134;SDS011;28312;43.460;11.810;2023-12-22T20:39:19;14.65;;;6.63;;
42134;SDS011;28312;43.460;11.810;2023-12-22T20:43:23;9.15;;;5.00;;
42134;SDS011;28312;43.460;11.810;2023-12-22T20:47:27;18.40;;;7.53;;
42134;SDS011;28312;43.460;11.810;2023-12-22T20:51:42;21.75;;;10.20;;
42134;SDS011;28312;43.460;11.810;2023-12-22T20:55:48;34.25;;;12.88;;
42134;SDS011;28312;43.460;11.810;2023-12-22T20:59:53;20.67;;;8.73;;
42134;SDS011;28312;43.460;11.810;2023-12-22T21:03:57;23.70;;;10.48;;
42134;SDS011;28312;43.460;11.810;2023-12-22T21:08:01;23.98;;;10.00;;
42134;SDS011;28312;43.460;11.810;2023-12-22T21:12:06;19.60;;;9.57;;
42134;SDS011;28312;43.460;11.810;2023-12-22T21:16:11;9.60;;;6.10;;
42134;SDS011;28312;43.460;11.810;2023-12-22T21:20:15;11.50;;;5.68;;
42134;SDS011;28312;43.460;11.810;2023-12-22T21:24:20;9.38;;;4.28;;
42134;SDS011;28312;43.460;11.810;2023-12-22T21:28:25;7.22;;;3.40;;
42134;SDS011;28312;43.460;11.810;2023-12-22T21:32:29;6.93;;;3.53;;
42134;SDS011;28312;43.460;11.810;2023-12-22T21:36:34;11.48;;;4.18;;
42134;SDS011;28312;43.460;11.810;2023-12-22T21:40:38;9.52;;;4.65;;
42134;SDS011;28312;43.460;11.810;2023-12-22T21:44:45;8.32;;;4.00;;
42134;SDS011;28312;43.460;11.810;2023-12-22T21:48:49;4.88;;;2.78;;
42134;SDS011;28312;43.460;11.810;2023-12-22T21:52:54;3.60;;;2.00;;
42134;SDS011;28312;43.460;11.810;2023-12-22T21:57:00;14.80;;;3.90;;
42134;SDS011;28312;43.460;11.810;2023-12-22T22:01:04;6.30;;;3.38;;
42134;SDS011;28312;43.460;11.810;2023-12-22T22:05:08;12.20;;;5.22;;
42134;SDS011;28312;43.460;11.810;2023-12-22T22:09:13;6.05;;;2.80;;
42134;SDS011;28312;43.460;11.810;2023-12-22T22:13:18;9.93;;;6.05;;
42134;SDS011;28312;43.460;11.810;2023-12-22T22:17:22;7.57;;;4.15;;
42134;SDS011;28312;43.460;11.810;2023-12-22T22:21:26;5.82;;;3.22;;
42134;SDS011;28312;43.460;11.810;2023-12-22T22:25:30;9.70;;;5.85;;
42134;SDS011;28312;43.460;11.810;2023-12-22T22:29:37;11.25;;;4.75;;
42134;SDS011;28312;43.460;11.810;2023-12-22T22:33:41;12.45;;;4.60;;
42134;SDS011;28312;43.460;11.810;2023-12-22T22:37:49;14.70;;;5.65;;
42134;SDS011;28312;43.460;11.810;2023-12-22T22:41:53;10.88;;;5.22;;
42134;SDS011;28312;43.460;11.810;2023-12-22T22:45:57;10.55;;;3.95;;
42134;SDS011;28312;43.460;11.810;2023-12-22T22:50:01;13.15;;;4.28;;
42134;SDS011;28312;43.460;11.810;2023-12-22T22:54:05;10.30;;;3.72;;
42134;SDS011;28312;43.460;11.810;2023-12-22T22:58:09;9.68;;;3.83;;
42134;SDS011;28312;43.460;11.810;2023-12-22T23:02:13;10.48;;;3.78;;
42134;SDS011;28312;43.460;11.810;2023-12-22T23:06:17;5.00;;;2.38;;
42134;SDS011;28312;43.460;11.810;2023-12-22T23:10:20;9.98;;;3.42;;
42134;SDS011;28312;43.460;11.810;2023-12-22T23:14:24;12.55;;;5.40;;
42134;SDS011;28312;43.460;11.810;2023-12-22T23:18:28;8.88;;;3.38;;
42134;SDS011;28312;43.460;11.810;2023-12-22T23:22:31;13.38;;;4.72;;
42134;SDS011;28312;43.460;11.810;2023-12-22T23:26:38;13.38;;;5.53;;
42134;SDS011;28312;43.460;11.810;2023-12-22T23:30:44;6.53;;;2.72;;
42134;SDS011;28312;43.460;11.810;2023-12-22T23:34:47;4.05;;;1.92;;
42134;SDS011;28312;43.460;11.810;2023-12-22T23:38:52;10.15;;;2.28;;
42134;SDS011;28312;43.460;11.810;2023-12-22T23:42:55;11.20;;;3.47;;
42134;SDS011;28312;43.460;11.810;2023-12-22T23:46:59;7.47;;;3.08;;
42134;SDS011;28312;43.460;11.810;2023-12-22T23:51:02;8.55;;;3.63;;
42134;SDS011;28312;43.460;11.810;2023-12-22T23:55:06;9.43;;;4.25;;
42134;SDS011;28312;43.460;11.810;2023-12-22T23:59:11;6.50;;;3.20;;
